Time,TemperatureF,DewpointF,PressureIn,WindDirection,WindDirectionDegrees,WindSpeedMPH,WindSpeedGustMPH,Humidity,HourlyPrecipIn,Conditions,Clouds,dailyrainin,SolarRadiationWatts/m^2,SoftwareType,DateUTC
2013-01-25 00:09:00,18.8,8.0,30.40,SE,129,9.0,10.0,64,0.00,,,0.00,0,weatherlink.com 1.10,2013-01-25 05:09:00,
2013-01-25 00:24:00,18.8,9.0,30.38,ESE,110,3.0,13.0,65,0.00,,,0.00,0,weatherlink.com 1.10,2013-01-25 05:24:00,
2013-01-25 00:39:00,18.7,9.0,30.37,SE,136,11.0,14.0,66,0.00,,,0.00,0,weatherlink.com 1.10,2013-01-25 05:39:00,
2013-01-25 00:54:00,18.8,9.0,30.37,ESE,112,8.0,11.0,67,0.00,,,0.00,0,weatherlink.com 1.10,2013-01-25 05:54:00,
2013-01-25 01:09:00,18.7,9.0,30.37,SSE,160,1.0,12.0,67,0.00,,,0.00,0,weatherlink.com 1.10,2013-01-25 06:09:00,
2013-01-25 01:24:00,18.8,10.0,30.38,SE,127,2.0,9.0,68,0.00,,,0.00,0,weatherlink.com 1.10,2013-01-25 06:24:00,
2013-01-25 01:39:00,18.8,10.0,30.36,SE,131,1.0,10.0,68,0.00,,,0.00,0,weatherlink.com 1.10,2013-01-25 06:39:00,
2013-01-25 01:54:00,18.8,10.0,30.36,SE,135,6.0,9.0,69,0.00,,,0.00,0,weatherlink.com 1.10,2013-01-25 06:54:00,
2013-01-25 02:09:00,18.7,10.0,30.36,ESE,122,8.0,8.0,70,0.00,,,0.00,0,weatherlink.com 1.10,2013-01-25 07:09:00,
2013-01-25 02:24:00,18.7,10.0,30.36,SE,140,4.0,9.0,70,0.00,,,0.00,0,weatherlink.com 1.10,2013-01-25 07:24:00,
2013-01-25 02:39:00,18.7,10.0,30.34,SSE,158,6.0,12.0,70,0.00,,,0.00,0,weatherlink.com 1.10,2013-01-25 07:39:00,
2013-01-25 02:54:00,18.6,11.0,30.33,SE,141,6.0,10.0,71,0.00,,,0.00,0,weatherlink.com 1.10,2013-01-25 07:54:00,
2013-01-25 03:09:00,18.6,11.0,30.32,ESE,112,3.0,12.0,71,0.00,,,0.00,0,weatherlink.com 1.10,2013-01-25 08:09:00,
2013-01-25 03:24:00,18.6,11.0,30.31,SE,134,9.0,9.0,71,0.00,,,0.00,0,weatherlink.com 1.10,2013-01-25 08:24:00,
2013-01-25 03:39:00,18.6,11.0,30.29,SE,126,2.0,8.0,71,0.00,,,0.00,0,weatherlink.com 1.10,2013-01-25 08:39:00,
2013-01-25 03:54:00,18.5,10.0,30.28,East,84,3.0,10.0,69,0.00,,,0.00,0,weatherlink.com 1.10,2013-01-25 08:54:00,
2013-01-25 04:10:00,18.6,10.0,30.27,ESE,105,8.0,10.0,69,0.00,,,0.00,0,weatherlink.com 1.10,2013-01-25 09:10:00,
2013-01-25 04:24:00,18.5,10.0,30.25,South,182,5.0,12.0,69,0.00,,,0.00,0,weatherlink.com 1.10,2013-01-25 09:24:00,
2013-01-25 04:39:00,18.6,10.0,30.25,SE,136,2.0,9.0,69,0.00,,,0.00,0,weatherlink.com 1.10,2013-01-25 09:39:00,
2013-01-25 04:55:00,18.6,10.0,30.23,ESE,109,5.0,8.0,70,0.00,,,0.00,0,weatherlink.com 1.10,2013-01-25 09:55:00,
2013-01-25 05:09:00,18.5,10.0,30.23,SE,141,7.0,11.0,69,0.00,,,0.00,0,weatherlink.com 1.10,2013-01-25 10:09:00,
2013-01-25 05:24:00,18.6,10.0,30.21,East,87,5.0,9.0,70,0.00,,,0.00,0,weatherlink.com 1.10,2013-01-25 10:24:00,
2013-01-25 05:39:00,18.5,10.0,30.19,ESE,119,7.0,9.0,70,0.00,,,0.00,0,weatherlink.com 1.10,2013-01-25 10:39:00,
2013-01-25 05:55:00,18.6,10.0,30.19,SE,131,3.0,8.0,70,0.00,,,0.00,0,weatherlink.com 1.10,2013-01-25 10:55:00,
2013-01-25 06:10:00,18.6,10.0,30.18,SE,136,3.0,11.0,70,0.00,,,0.00,0,weatherlink.com 1.10,2013-01-25 11:10:00,
2013-01-25 06:25:00,18.6,10.0,30.17,SE,145,5.0,9.0,69,0.00,,,0.00,0,weatherlink.com 1.10,2013-01-25 11:25:00,
2013-01-25 06:40:00,18.6,10.0,30.17,SE,143,4.0,11.0,69,0.00,,,0.00,0,weatherlink.com 1.10,2013-01-25 11:40:00,
2013-01-25 06:55:00,18.8,10.0,30.17,SE,141,4.0,9.0,69,0.00,,,0.00,0,weatherlink.com 1.10,2013-01-25 11:55:00,
2013-01-25 07:10:00,18.8,10.0,30.16,ESE,122,4.0,8.0,69,0.00,,,0.00,0,weatherlink.com 1.10,2013-01-25 12:10:00,
2013-01-25 07:25:00,18.9,11.0,30.16,ESE,112,2.0,5.0,70,0.00,,,0.00,0,weatherlink.com 1.10,2013-01-25 12:25:00,
2013-01-25 07:40:00,18.9,11.0,30.16,SE,126,3.0,7.0,70,0.00,,,0.00,0,weatherlink.com 1.10,2013-01-25 12:40:00,
2013-01-25 07:55:00,19.1,11.0,30.16,SSE,149,3.0,4.0,71,0.00,,,0.00,0,weatherlink.com 1.10,2013-01-25 12:55:00,
2013-01-25 08:10:00,19.0,11.0,30.15,SE,141,2.0,6.0,70,0.00,,,0.00,0,weatherlink.com 1.10,2013-01-25 13:10:00,
2013-01-25 08:25:00,18.9,12.0,30.15,SSE,166,7.0,11.0,74,0.00,,,0.00,11,weatherlink.com 1.10,2013-01-25 13:25:00,
2013-01-25 08:40:00,18.2,14.0,30.15,SSE,156,1.0,6.0,82,0.00,,,0.00,16,weatherlink.com 1.10,2013-01-25 13:40:00,
2013-01-25 08:55:00,17.8,14.0,30.14,SE,145,2.0,5.0,85,0.00,,,0.00,35,weatherlink.com 1.10,2013-01-25 13:55:00,
2013-01-25 09:10:00,17.7,15.0,30.14,SSE,160,1.0,5.0,87,0.00,,,0.00,33,weatherlink.com 1.10,2013-01-25 14:10:00,
2013-01-25 09:25:00,17.7,15.0,30.12,SSE,160,3.0,5.0,87,0.00,,,0.00,53,weatherlink.com 1.10,2013-01-25 14:25:00,
2013-01-25 09:40:00,17.9,15.0,30.12,South,177,0.0,6.0,88,0.00,,,0.00,56,weatherlink.com 1.10,2013-01-25 14:40:00,
2013-01-25 09:55:00,18.3,15.0,30.12,South,169,1.0,6.0,87,0.00,,,0.00,121,weatherlink.com 1.10,2013-01-25 14:55:00,
2013-01-25 10:10:00,18.5,15.0,30.11,SSE,162,4.0,8.0,86,0.00,,,0.00,144,weatherlink.com 1.10,2013-01-25 15:10:00,
2013-01-25 10:25:00,18.7,15.0,30.11,SSE,161,2.0,7.0,86,0.00,,,0.00,141,weatherlink.com 1.10,2013-01-25 15:25:00,
2013-01-25 10:40:00,19.1,16.0,30.11,SSW,200,6.0,7.0,86,0.00,,,0.00,162,weatherlink.com 1.10,2013-01-25 15:40:00,
2013-01-25 10:55:00,19.7,16.0,30.11,SSW,204,7.0,7.0,85,0.00,,,0.00,248,weatherlink.com 1.10,2013-01-25 15:55:00,
2013-01-25 11:10:00,19.7,16.0,30.11,South,184,2.0,11.0,84,0.00,,,0.00,202,weatherlink.com 1.10,2013-01-25 16:10:00,
2013-01-25 11:26:00,20.0,16.0,30.10,SSW,208,1.0,11.0,83,0.00,,,0.00,211,weatherlink.com 1.10,2013-01-25 16:26:00,
2013-01-25 11:40:00,20.3,16.0,30.09,SW,233,4.0,9.0,83,0.00,,,0.00,237,weatherlink.com 1.10,2013-01-25 16:40:00,
2013-01-25 11:55:00,20.5,16.0,30.09,SW,226,7.0,12.0,82,0.00,,,0.00,250,weatherlink.com 1.10,2013-01-25 16:55:00,
2013-01-25 12:10:00,20.8,16.0,30.08,SW,236,5.0,9.0,81,0.00,,,0.00,244,weatherlink.com 1.10,2013-01-25 17:10:00,
2013-01-25 12:25:00,21.1,16.0,30.06,South,180,4.0,11.0,81,0.00,,,0.00,274,weatherlink.com 1.10,2013-01-25 17:25:00,
2013-01-25 12:40:00,21.2,16.0,30.05,SW,229,4.0,12.0,81,0.00,,,0.00,255,weatherlink.com 1.10,2013-01-25 17:40:00,
2013-01-25 12:55:00,21.4,16.0,30.04,WSW,248,7.0,11.0,80,0.00,,,0.00,227,weatherlink.com 1.10,2013-01-25 17:55:00,
2013-01-25 13:11:00,21.4,16.0,30.03,WSW,251,8.0,13.0,80,0.00,,,0.00,257,weatherlink.com 1.10,2013-01-25 18:11:00,
2013-01-25 13:26:00,21.5,17.0,30.01,South,182,5.0,11.0,81,0.00,,,0.00,262,weatherlink.com 1.10,2013-01-25 18:26:00,
2013-01-25 13:41:00,21.8,17.0,30.01,WSW,249,5.0,12.0,81,0.00,,,0.00,216,weatherlink.com 1.10,2013-01-25 18:41:00,
2013-01-25 13:56:00,22.4,17.0,30.00,WSW,239,10.0,12.0,80,0.00,,,0.00,211,weatherlink.com 1.10,2013-01-25 18:56:00,
2013-01-25 14:11:00,22.4,17.0,30.00,WSW,258,8.0,11.0,80,0.00,,,0.00,190,weatherlink.com 1.10,2013-01-25 19:11:00,
2013-01-25 14:26:00,22.4,17.0,29.99,SW,231,7.0,13.0,79,0.00,,,0.00,169,weatherlink.com 1.10,2013-01-25 19:26:00,
2013-01-25 14:41:00,22.7,17.0,29.99,SW,218,9.0,14.0,79,0.00,,,0.00,151,weatherlink.com 1.10,2013-01-25 19:41:00,
2013-01-25 14:56:00,23.4,18.0,29.98,West,268,3.0,8.0,79,0.00,,,0.00,146,weatherlink.com 1.10,2013-01-25 19:56:00,
2013-01-25 15:11:00,22.9,17.0,29.99,SW,236,5.0,10.0,79,0.00,,,0.00,123,weatherlink.com 1.10,2013-01-25 20:11:00,
2013-01-25 15:26:00,23.0,18.0,29.99,WSW,238,9.0,14.0,80,0.00,,,0.00,104,weatherlink.com 1.10,2013-01-25 20:26:00,
2013-01-25 15:41:00,23.2,18.0,29.99,WSW,239,3.0,11.0,80,0.00,,,0.00,83,weatherlink.com 1.10,2013-01-25 20:41:00,
2013-01-25 15:56:00,23.1,18.0,29.98,WSW,242,9.0,11.0,81,0.00,,,0.00,83,weatherlink.com 1.10,2013-01-25 20:56:00,
2013-01-25 16:11:00,23.2,19.0,29.99,WSW,256,7.0,13.0,82,0.00,,,0.00,67,weatherlink.com 1.10,2013-01-25 21:11:00,
2013-01-25 16:26:00,23.4,19.0,29.99,WSW,239,9.0,12.0,82,0.00,,,0.00,70,weatherlink.com 1.10,2013-01-25 21:26:00,
2013-01-25 16:41:00,23.6,19.0,29.99,SW,225,7.0,11.0,82,0.00,,,0.00,47,weatherlink.com 1.10,2013-01-25 21:41:00,
2013-01-25 16:56:00,23.7,19.0,29.99,SW,221,5.0,10.0,82,0.00,,,0.00,33,weatherlink.com 1.10,2013-01-25 21:56:00,
2013-01-25 17:11:00,23.9,19.0,29.99,West,270,2.0,11.0,82,0.00,,,0.00,23,weatherlink.com 1.10,2013-01-25 22:11:00,
2013-01-25 17:26:00,24.1,19.0,30.00,WSW,255,2.0,8.0,82,0.00,,,0.00,11,weatherlink.com 1.10,2013-01-25 22:26:00,
2013-01-25 17:41:00,24.2,19.0,30.00,WSW,253,2.0,4.0,82,0.00,,,0.00,5,weatherlink.com 1.10,2013-01-25 22:41:00,
2013-01-25 17:56:00,24.3,20.0,30.00,WSW,254,5.0,5.0,83,0.00,,,0.00,0,weatherlink.com 1.10,2013-01-25 22:56:00,
2013-01-25 18:11:00,24.4,20.0,30.00,WSW,249,2.0,5.0,83,0.00,,,0.00,0,weatherlink.com 1.10,2013-01-25 23:11:00,
2013-01-25 18:26:00,24.5,20.0,30.01,WSW,255,0.0,3.0,84,0.00,,,0.00,0,weatherlink.com 1.10,2013-01-25 23:26:00,
2013-01-25 18:41:00,24.5,20.0,30.01,West,266,2.0,4.0,84,0.00,,,0.00,0,weatherlink.com 1.10,2013-01-25 23:41:00,
2013-01-25 18:56:00,24.4,20.0,30.01,West,267,2.0,4.0,84,0.00,,,0.00,0,weatherlink.com 1.10,2013-01-25 23:56:00,
2013-01-25 19:11:00,24.4,21.0,30.01,West,265,3.0,3.0,85,0.00,,,0.00,0,weatherlink.com 1.10,2013-01-26 00:11:00,
2013-01-25 19:26:00,24.4,21.0,30.01,WSW,253,3.0,5.0,85,0.00,,,0.00,0,weatherlink.com 1.10,2013-01-26 00:26:00,
2013-01-25 19:41:00,24.4,20.0,30.01,WSW,247,1.0,5.0,84,0.00,,,0.00,0,weatherlink.com 1.10,2013-01-26 00:41:00,
2013-01-25 19:56:00,24.5,20.0,30.01,SW,234,2.0,5.0,84,0.00,,,0.00,0,weatherlink.com 1.10,2013-01-26 00:56:00,
2013-01-25 20:11:00,24.6,20.0,30.01,SW,223,3.0,5.0,83,0.00,,,0.00,0,weatherlink.com 1.10,2013-01-26 01:11:00,
2013-01-25 20:26:00,24.7,20.0,30.01,SW,226,1.0,6.0,83,0.00,,,0.00,0,weatherlink.com 1.10,2013-01-26 01:26:00,
2013-01-25 20:41:00,24.8,20.0,30.01,SW,222,1.0,5.0,83,0.00,,,0.00,0,weatherlink.com 1.10,2013-01-26 01:41:00,
2013-01-25 20:56:00,24.8,20.0,30.01,SW,216,1.0,6.0,83,0.00,,,0.00,0,weatherlink.com 1.10,2013-01-26 01:56:00,
2013-01-25 21:11:00,24.9,20.0,30.01,South,183,3.0,5.0,83,0.00,,,0.00,0,weatherlink.com 1.10,2013-01-26 02:11:00,
2013-01-25 21:26:00,25.0,21.0,30.01,SW,233,3.0,6.0,83,0.00,,,0.00,0,weatherlink.com 1.10,2013-01-26 02:26:00,
2013-01-25 21:41:00,25.0,21.0,30.01,SW,233,3.0,5.0,83,0.00,,,0.00,0,weatherlink.com 1.10,2013-01-26 02:41:00,
2013-01-25 21:56:00,25.1,21.0,30.01,SW,230,3.0,5.0,83,0.00,,,0.00,0,weatherlink.com 1.10,2013-01-26 02:56:00,
2013-01-25 22:11:00,25.1,21.0,30.02,SW,233,2.0,5.0,83,0.00,,,0.00,0,weatherlink.com 1.10,2013-01-26 03:11:00,
2013-01-25 22:26:00,25.3,21.0,30.02,WSW,237,4.0,5.0,83,0.00,,,0.00,0,weatherlink.com 1.10,2013-01-26 03:26:00,
2013-01-25 22:41:00,25.4,21.0,30.02,WSW,244,0.0,5.0,83,0.00,,,0.00,0,weatherlink.com 1.10,2013-01-26 03:41:00,
2013-01-25 22:56:00,25.8,21.0,30.02,WNW,293,5.0,8.0,82,0.00,,,0.00,0,weatherlink.com 1.10,2013-01-26 03:56:00,
2013-01-25 23:11:00,26.1,21.0,30.03,NW,314,5.0,11.0,82,0.00,,,0.00,0,weatherlink.com 1.10,2013-01-26 04:11:00,
2013-01-25 23:27:00,26.1,21.0,30.04,WNW,298,6.0,11.0,82,0.00,,,0.00,0,weatherlink.com 1.10,2013-01-26 04:27:00,
2013-01-25 23:41:00,26.0,21.0,30.04,NW,320,10.0,11.0,82,0.00,,,0.00,0,weatherlink.com 1.10,2013-01-26 04:41:00,
2013-01-25 23:56:00,25.8,20.0,30.05,WNW,284,8.0,17.0,80,0.00,,,0.00,0,weatherlink.com 1.10,2013-01-26 04:56:00,